createdAt,value
2022-10-13T00:00:46.933Z,100531.28
2022-10-13T00:03:14.510Z,100522.84
2022-10-13T00:05:50.006Z,100529.31
2022-10-13T00:08:19.969Z,100528.59
2022-10-13T00:10:49.342Z,100534.63
2022-10-13T00:13:19.678Z,100531.75
2022-10-13T00:15:47.620Z,100527.28
2022-10-13T00:18:15.428Z,100531.50
2022-10-13T00:20:48.600Z,100539.47
2022-10-13T00:23:16.684Z,100530.31
2022-10-13T00:25:45.337Z,100530.78
2022-10-13T00:28:12.491Z,100528.25
2022-10-13T00:30:39.665Z,100524.75
2022-10-13T00:33:07.156Z,100536.94
2022-10-13T00:35:34.514Z,100534.16
2022-10-13T00:38:01.228Z,100534.75
2022-10-13T00:40:30.985Z,100533.81
2022-10-13T00:42:57.829Z,100533.19
2022-10-13T00:45:29.670Z,100531.16
2022-10-13T00:47:59.289Z,100533.19
2022-10-13T00:50:32.246Z,100526.19
2022-10-13T00:53:01.249Z,100526.69
2022-10-13T00:55:33.514Z,100527.66
2022-10-13T00:58:05.404Z,100527.03
2022-10-13T01:00:34.078Z,100523.06
2022-10-13T01:03:02.213Z,100529.09
2022-10-13T01:05:29.774Z,100520.38
2022-10-13T01:07:57.921Z,100527.41
2022-10-13T01:10:45.476Z,100523.53
2022-10-13T01:13:17.957Z,100524.75
2022-10-13T01:15:47.638Z,100519.66
2022-10-13T01:18:22.785Z,100524.72
2022-10-13T01:20:59.491Z,100524.88
2022-10-13T01:24:07.375Z,100526.66
2022-10-13T01:26:59.530Z,100526.78
2022-10-13T01:30:05.258Z,100525.47
2022-10-13T01:32:43.996Z,100519.66
2022-10-13T01:35:18.039Z,100518.69
2022-10-13T01:38:16.189Z,100516.91
2022-10-13T01:40:45.328Z,100514.81
2022-10-13T01:43:20.021Z,100525.56
2022-10-13T01:45:54.681Z,100531.75
2022-10-13T01:48:22.284Z,100532.47
2022-10-13T01:50:53.259Z,100526.06
2022-10-13T01:53:21.301Z,100519.81
2022-10-13T01:55:58.840Z,100516.78
2022-10-13T01:58:29.274Z,100519.31
2022-10-13T02:01:22.509Z,100523.28
2022-10-13T02:04:18.634Z,100518.72
2022-10-13T02:07:00.930Z,100514.34
2022-10-13T02:09:50.328Z,100514.13
2022-10-13T02:12:25.598Z,100519.66
2022-10-13T02:14:55.732Z,100522.22
2022-10-13T02:17:23.059Z,100528.59
2022-10-13T02:19:50.226Z,100524.50
2022-10-13T02:22:18.372Z,100523.03
2022-10-13T02:24:45.259Z,100514.34
2022-10-13T02:27:12.946Z,100507.09
2022-10-13T02:29:54.879Z,100508.66
2022-10-13T02:32:25.296Z,100505.88
2022-10-13T02:34:53.105Z,100510.22
2022-10-13T02:37:20.245Z,100511.53
2022-10-13T02:39:47.058Z,100513.47
2022-10-13T02:42:13.774Z,100511.69
2022-10-13T02:44:40.518Z,100514.56
2022-10-13T02:47:07.168Z,100516.72
2022-10-13T02:49:33.924Z,100528.91
2022-10-13T02:52:00.766Z,100521.06
2022-10-13T02:54:27.449Z,100524.72
2022-10-13T02:56:54.367Z,100526.63
2022-10-13T02:59:21.050Z,100523.97
2022-10-13T03:01:47.745Z,100521.88
2022-10-13T03:04:14.542Z,100523.47
2022-10-13T03:06:41.223Z,100523.69
2022-10-13T03:09:09.436Z,100520.78
2022-10-13T03:11:36.440Z,100522.06
2022-10-13T03:14:03.254Z,100534.66
2022-10-13T03:16:30.116Z,100532.41
2022-10-13T03:18:56.811Z,100530.38
2022-10-13T03:21:23.584Z,100523.72
2022-10-13T03:23:50.424Z,100520.78
2022-10-13T03:26:18.921Z,100518.50
2022-10-13T03:28:50.708Z,100516.94
2022-10-13T03:31:18.371Z,100519.50
2022-10-13T03:33:46.842Z,100525.44
2022-10-13T03:36:13.674Z,100514.56
2022-10-13T03:38:42.771Z,100522.63
2022-10-13T03:41:14.029Z,100513.47
2022-10-13T03:43:41.457Z,100512.28
2022-10-13T03:46:10.638Z,100507.47
2022-10-13T03:48:37.951Z,100501.53
2022-10-13T03:51:17.338Z,100506.84
2022-10-13T03:53:50.786Z,100516.84
2022-10-13T03:56:19.944Z,100517.88
2022-10-13T03:58:59.199Z,100517.25
2022-10-13T04:01:28.456Z,100511.75
2022-10-13T04:03:56.547Z,100508.56
2022-10-13T04:06:25.449Z,100504.28
2022-10-13T04:08:52.994Z,100503.28
2022-10-13T04:11:20.629Z,100506.09
2022-10-13T04:13:51.083Z,100502.91
2022-10-13T04:16:20.396Z,100504.03
2022-10-13T04:18:52.588Z,100506.69
2022-10-13T04:21:19.343Z,100515.75
2022-10-13T04:23:45.991Z,100515.56
2022-10-13T04:26:18.490Z,100521.19
2022-10-13T04:28:46.848Z,100518.91
2022-10-13T04:31:13.735Z,100520.38
2022-10-13T04:33:40.764Z,100506.00
2022-10-13T04:36:10.682Z,100506.34
2022-10-13T04:38:37.374Z,100503.69
2022-10-13T04:41:08.564Z,100501.41
2022-10-13T04:43:35.700Z,100503.53
2022-10-13T04:46:02.310Z,100500.75
2022-10-13T04:48:29.531Z,100508.22
2022-10-13T04:51:04.425Z,100512.34
2022-10-13T04:53:32.145Z,100510.56
2022-10-13T04:56:08.456Z,100506.22
2022-10-13T04:58:37.061Z,100510.78
2022-10-13T05:01:06.730Z,100499.34
2022-10-13T05:03:34.839Z,100494.41
2022-10-13T05:06:01.698Z,100492.72
2022-10-13T05:08:28.599Z,100488.16
2022-10-13T05:10:56.303Z,100486.44
2022-10-13T05:13:23.765Z,100485.59
2022-10-13T05:15:51.631Z,100483.56
2022-10-13T05:18:21.672Z,100485.50
2022-10-13T05:20:48.607Z,100487.63
2022-10-13T05:23:16.337Z,100480.75
2022-10-13T05:25:43.281Z,100479.69
2022-10-13T05:28:12.961Z,100471.25
2022-10-13T05:30:39.833Z,100476.84
2022-10-13T05:33:06.572Z,100483.38
2022-10-13T05:35:33.411Z,100474.47
2022-10-13T05:38:00.111Z,100461.75
2022-10-13T05:40:28.473Z,100458.72
2022-10-13T05:43:00.476Z,100456.31
2022-10-13T05:45:29.830Z,100458.47
2022-10-13T05:47:56.609Z,100452.31
2022-10-13T05:50:23.500Z,100459.44
2022-10-13T05:52:51.688Z,100459.91
2022-10-13T05:55:19.384Z,100458.25
2022-10-13T05:57:51.579Z,100462.31
2022-10-13T06:00:20.041Z,100458.63
2022-10-13T06:02:57.869Z,100449.94
2022-10-13T06:05:27.541Z,100447.88
2022-10-13T06:07:56.078Z,100448.13
2022-10-13T06:10:23.471Z,100446.72
2022-10-13T06:12:50.374Z,100448.50
2022-10-13T06:15:17.206Z,100450.09
2022-10-13T06:17:44.007Z,100448.03
2022-10-13T06:20:11.435Z,100447.44
2022-10-13T06:22:38.767Z,100450.09
2022-10-13T06:25:06.970Z,100457.56
2022-10-13T06:27:33.763Z,100466.59
2022-10-13T06:30:00.513Z,100464.66
2022-10-13T06:32:27.364Z,100453.53
2022-10-13T06:34:54.897Z,100451.22
2022-10-13T06:37:26.972Z,100463.78
2022-10-13T06:39:54.231Z,100462.94
2022-10-13T06:42:21.363Z,100453.16
2022-10-13T06:45:05.112Z,100455.59
2022-10-13T06:47:31.849Z,100462.84
2022-10-13T06:49:58.512Z,100461.91
2022-10-13T06:52:25.599Z,100465.66
2022-10-13T06:54:52.345Z,100470.88
2022-10-13T06:57:19.020Z,100461.00
2022-10-13T06:59:45.707Z,100463.16
2022-10-13T07:02:12.413Z,100463.41
2022-10-13T07:04:39.057Z,100461.59
2022-10-13T07:07:05.721Z,100454.97
2022-10-13T07:09:32.415Z,100453.38
2022-10-13T07:11:59.368Z,100447.69
2022-10-13T07:14:26.172Z,100449.44
2022-10-13T07:16:53.233Z,100436.13
2022-10-13T07:19:20.012Z,100441.66
2022-10-13T07:21:46.732Z,100436.34
2022-10-13T07:24:13.601Z,100436.78
2022-10-13T07:26:40.440Z,100446.16
2022-10-13T07:29:08.138Z,100441.25
2022-10-13T07:31:35.024Z,100438.69
2022-10-13T07:34:02.231Z,100442.78
2022-10-13T07:36:29.666Z,100436.84
2022-10-13T07:38:56.345Z,100441.16
2022-10-13T07:41:22.957Z,100436.94
2022-10-13T07:43:54.894Z,100420.41
2022-10-13T07:46:21.611Z,100418.16
2022-10-13T07:48:48.529Z,100422.84
2022-10-13T07:51:15.575Z,100425.03
2022-10-13T07:53:42.953Z,100419.25
2022-10-13T07:56:11.976Z,100422.56
2022-10-13T07:58:40.206Z,100429.34
2022-10-13T08:01:08.057Z,100429.94
2022-10-13T08:03:38.262Z,100439.28
2022-10-13T08:06:06.280Z,100432.28
2022-10-13T08:08:33.465Z,100426.16
2022-10-13T08:11:04.710Z,100419.75
2022-10-13T08:13:31.699Z,100422.38
2022-10-13T08:16:04.746Z,100434.94
2022-10-13T08:18:32.178Z,100438.81
2022-10-13T08:23:50.776Z,100431.09
2022-10-13T08:26:23.379Z,100433.56
2022-10-13T08:29:09.398Z,100428.19
2022-10-13T08:31:39.740Z,100428.41
2022-10-13T08:34:06.850Z,100426.22
2022-10-13T08:36:33.590Z,100428.34
2022-10-13T08:39:00.249Z,100423.06
2022-10-13T08:41:31.553Z,100406.66
2022-10-13T08:47:06.446Z,100416.06
2022-10-13T08:49:33.192Z,100421.78
2022-10-13T08:52:05.336Z,100411.69
2022-10-13T08:54:33.258Z,100401.09
2022-10-13T08:59:27.838Z,100395.66
2022-10-13T09:01:55.592Z,100392.56
2022-10-13T09:04:39.326Z,100398.44
2022-10-13T09:07:08.811Z,100396.44
2022-10-13T09:09:36.841Z,100393.56
2022-10-13T09:12:04.977Z,100387.13
2022-10-13T09:14:38.152Z,100403.53
2022-10-13T09:17:18.937Z,100410.28
2022-10-13T09:20:15.952Z,100407.28
2022-10-13T09:22:43.270Z,100403.16
2022-10-13T09:25:12.686Z,100396.44
2022-10-13T09:27:47.755Z,100397.63
2022-10-13T09:30:34.906Z,100389.66
2022-10-13T09:33:09.394Z,100402.34
2022-10-13T09:35:37.672Z,100401.72
2022-10-13T09:38:06.314Z,100399.25
2022-10-13T09:40:33.757Z,100399.19
2022-10-13T09:43:01.923Z,100400.16
2022-10-13T09:45:31.026Z,100409.28
2022-10-13T09:48:05.291Z,100409.03
2022-10-13T09:50:35.256Z,100410.63
2022-10-13T09:53:32.064Z,100412.19
2022-10-13T09:56:19.072Z,100411.38
2022-10-13T09:59:10.930Z,100416.59
2022-10-13T10:01:43.937Z,100407.19
2022-10-13T10:04:19.343Z,100398.03
2022-10-13T10:06:46.802Z,100383.66
2022-10-13T10:09:34.965Z,100381.34
2022-10-13T10:12:03.578Z,100372.75
2022-10-13T10:14:38.427Z,100364.53
2022-10-13T10:17:14.126Z,100367.63
2022-10-13T10:20:05.837Z,100363.84
2022-10-13T10:22:44.351Z,100370.72
2022-10-13T10:25:20.153Z,100369.88
2022-10-13T10:28:06.314Z,100361.31
2022-10-13T10:30:38.937Z,100360.34
2022-10-13T10:33:13.363Z,100368.19
2022-10-13T10:35:44.252Z,100372.56
2022-10-13T10:38:14.017Z,100374.22
2022-10-13T10:41:10.502Z,100374.91
2022-10-13T10:43:51.978Z,100371.84
2022-10-13T10:47:04.762Z,100372.28
2022-10-13T10:49:36.791Z,100361.94
2022-10-13T10:52:08.578Z,100355.25
2022-10-13T10:54:51.936Z,100348.00
2022-10-13T10:57:27.826Z,100346.50
2022-10-13T11:00:06.438Z,100336.03
2022-10-13T11:02:49.377Z,100327.41
2022-10-13T11:05:16.823Z,100333.63
2022-10-13T11:07:43.459Z,100344.78
2022-10-13T11:10:10.151Z,100336.16
2022-10-13T11:12:52.124Z,100327.09
2022-10-13T11:15:27.422Z,100322.94
2022-10-13T11:17:54.717Z,100321.91
2022-10-13T11:20:21.277Z,100320.22
2022-10-13T11:23:00.186Z,100317.88
2022-10-13T11:25:44.577Z,100312.16
2022-10-13T11:28:23.609Z,100301.38
2022-10-13T11:30:51.566Z,100303.75
2022-10-13T11:33:54.154Z,100292.88
2022-10-13T11:36:29.983Z,100294.72
2022-10-13T11:39:36.069Z,100283.47
2022-10-13T11:42:05.764Z,100275.78
2022-10-13T11:44:55.670Z,100280.41
2022-10-13T11:47:25.664Z,100278.03
2022-10-13T11:50:25.180Z,100268.56
2022-10-13T11:53:17.451Z,100266.97
2022-10-13T11:55:56.579Z,100256.91
2022-10-13T11:58:31.548Z,100253.41
2022-10-13T12:03:55.205Z,100241.09
2022-10-13T12:06:34.066Z,100237.25
2022-10-13T12:09:03.062Z,100225.19
2022-10-13T12:11:34.013Z,100221.00
2022-10-13T12:14:01.418Z,100217.84
2022-10-13T12:16:29.523Z,100211.66
2022-10-13T12:19:18.912Z,100211.63
2022-10-13T12:21:55.026Z,100210.44
2022-10-13T12:24:24.082Z,100202.75
2022-10-13T12:26:52.059Z,100202.25
2022-10-13T12:29:23.290Z,100205.31
2022-10-13T12:31:51.325Z,100193.25
2022-10-13T12:34:25.931Z,100189.53
2022-10-13T12:36:57.120Z,100197.28
2022-10-13T12:39:25.410Z,100194.28
2022-10-13T12:41:53.150Z,100189.91
2022-10-13T12:44:27.291Z,100188.56
2022-10-13T12:46:58.742Z,100182.50
2022-10-13T12:49:30.710Z,100177.47
2022-10-13T12:52:09.572Z,100185.19
2022-10-13T12:54:47.023Z,100187.56
2022-10-13T12:57:37.746Z,100190.56
2022-10-13T13:00:20.261Z,100191.44
2022-10-13T13:02:56.365Z,100189.03
2022-10-13T13:05:51.595Z,100191.22
2022-10-13T13:08:29.859Z,100180.84
2022-10-13T13:10:58.414Z,100182.69
2022-10-13T13:13:25.763Z,100181.50
2022-10-13T13:15:53.241Z,100184.69
2022-10-13T13:18:39.561Z,100181.50
2022-10-13T13:21:15.928Z,100188.22
2022-10-13T13:23:49.542Z,100195.94
2022-10-13T13:26:22.957Z,100187.53
2022-10-13T13:28:51.865Z,100195.94
2022-10-13T13:31:20.811Z,100185.88
2022-10-13T13:33:48.493Z,100177.97
2022-10-13T13:36:19.628Z,100175.78
2022-10-13T13:38:47.885Z,100168.41
2022-10-13T13:41:15.409Z,100163.19
2022-10-13T13:43:42.378Z,100164.38
2022-10-13T13:46:19.118Z,100149.28
2022-10-13T13:48:45.821Z,100149.13
2022-10-13T13:51:12.548Z,100143.75
2022-10-13T13:53:39.336Z,100138.66
2022-10-13T13:56:06.294Z,100137.13
2022-10-13T13:58:33.034Z,100141.81
2022-10-13T14:01:00.003Z,100147.88
2022-10-13T14:03:26.741Z,100141.97
2022-10-13T14:05:53.364Z,100144.53
2022-10-13T14:08:20.118Z,100142.00
2022-10-13T14:10:46.773Z,100143.19
2022-10-13T14:13:17.834Z,100140.53
2022-10-13T14:15:44.522Z,100132.50
2022-10-13T14:18:11.232Z,100127.47
2022-10-13T14:20:42.131Z,100124.16
2022-10-13T14:23:08.837Z,100124.34
2022-10-13T14:25:38.193Z,100115.13
2022-10-13T14:28:05.037Z,100116.28
2022-10-13T14:30:31.677Z,100105.72
2022-10-13T14:32:58.465Z,100096.31
2022-10-13T14:35:26.026Z,100103.53
2022-10-13T14:37:52.785Z,100111.44
2022-10-13T14:40:19.437Z,100105.56
2022-10-13T14:42:46.109Z,100105.41
2022-10-13T14:45:15.850Z,100098.91
2022-10-13T14:47:42.667Z,100096.53
2022-10-13T14:50:10.085Z,100091.69
2022-10-13T14:52:36.804Z,100088.34
2022-10-13T14:55:03.719Z,100092.19
2022-10-13T14:57:30.469Z,100081.63
2022-10-13T15:00:01.677Z,100078.44
2022-10-13T15:02:29.107Z,100073.59
2022-10-13T15:04:55.751Z,100069.56
2022-10-13T15:07:22.783Z,100063.00
2022-10-13T15:10:04.374Z,100073.22
2022-10-13T15:12:32.687Z,100058.47
2022-10-13T15:14:59.444Z,100062.00
2022-10-13T15:17:26.291Z,100068.03
2022-10-13T15:19:52.972Z,100054.47
2022-10-13T15:22:20.188Z,100047.59
2022-10-13T15:24:47.144Z,100053.94
2022-10-13T15:27:13.846Z,100057.16
2022-10-13T15:29:40.557Z,100051.78
2022-10-13T15:32:11.025Z,100050.44
2022-10-13T15:34:40.829Z,100049.41
2022-10-13T15:37:07.765Z,100044.56
2022-10-13T15:39:34.652Z,100043.06
2022-10-13T15:42:01.727Z,100039.34
2022-10-13T15:44:30.877Z,100037.38
2022-10-13T15:47:07.910Z,100040.72
2022-10-13T15:49:39.818Z,100039.19
2022-10-13T15:52:06.687Z,100051.13
2022-10-13T15:54:33.570Z,100049.78
2022-10-13T15:57:00.381Z,100034.03
2022-10-13T15:59:27.036Z,100037.41
2022-10-13T16:01:53.713Z,100034.38
2022-10-13T16:04:20.380Z,100035.38
2022-10-13T16:06:47.080Z,100021.47
2022-10-13T16:09:13.690Z,100026.84
2022-10-13T16:11:40.439Z,100023.50
2022-10-13T16:14:07.065Z,100043.25
2022-10-13T16:16:33.787Z,100047.44
2022-10-13T16:19:00.510Z,100032.03
2022-10-13T16:21:27.526Z,100028.19
2022-10-13T16:23:54.269Z,100024.19
2022-10-13T16:26:21.107Z,100020.00
2022-10-13T16:28:47.825Z,100019.66
2022-10-13T16:31:16.515Z,100015.63
2022-10-13T16:33:44.840Z,100017.63
2022-10-13T16:36:16.982Z,100005.94
2022-10-13T16:38:44.922Z,99989.19
2022-10-13T16:41:17.695Z,99988.19
2022-10-13T16:43:45.716Z,99981.16
2022-10-13T16:46:14.269Z,99975.97
2022-10-13T16:48:45.393Z,99981.63
2022-10-13T16:51:18.416Z,99988.34
2022-10-13T16:54:01.205Z,99977.44
2022-10-13T16:56:31.131Z,99975.75
2022-10-13T16:59:01.007Z,99974.41
2022-10-13T17:01:28.602Z,99969.88
2022-10-13T17:03:55.781Z,99978.78
2022-10-13T17:06:24.949Z,99985.16
2022-10-13T17:08:56.578Z,99979.31
2022-10-13T17:11:26.257Z,99960.56
2022-10-13T17:13:53.470Z,99963.75
2022-10-13T17:16:20.471Z,99964.06
2022-10-13T17:18:47.313Z,99961.56
2022-10-13T17:21:16.756Z,99959.88
2022-10-13T17:23:48.338Z,99960.38
2022-10-13T17:26:17.055Z,99971.94
2022-10-13T17:28:44.228Z,99959.38
2022-10-13T17:31:22.778Z,99956.22
2022-10-13T17:33:51.109Z,99943.50
2022-10-13T17:36:26.289Z,99937.78
2022-10-13T17:38:55.146Z,99947.66
2022-10-13T17:41:23.348Z,99953.38
2022-10-13T17:43:51.505Z,99946.31
2022-10-13T17:46:38.314Z,99945.00
2022-10-13T17:49:09.310Z,99940.97
2022-10-13T17:51:36.222Z,99931.94
2022-10-13T17:54:03.628Z,99934.94
2022-10-13T17:56:30.513Z,99934.63
2022-10-13T17:58:57.730Z,99940.97
2022-10-13T18:01:29.001Z,99945.50
2022-10-13T18:03:57.154Z,99941.16
2022-10-13T18:06:37.756Z,99941.31
2022-10-13T18:09:08.062Z,99932.75
2022-10-13T18:11:35.037Z,99934.94
2022-10-13T18:14:01.808Z,99933.44
2022-10-13T18:16:28.594Z,99954.50
2022-10-13T18:18:55.807Z,99947.84
2022-10-13T18:21:26.226Z,99945.97
2022-10-13T18:23:58.145Z,99941.31
2022-10-13T18:26:26.233Z,99952.00
2022-10-13T18:28:53.368Z,99955.03
2022-10-13T18:31:24.367Z,99949.50
2022-10-13T18:34:05.620Z,99942.97
2022-10-13T18:36:33.174Z,99944.66
2022-10-13T18:39:08.954Z,99932.25
2022-10-13T18:41:36.952Z,99914.84
2022-10-13T18:44:04.602Z,99911.84
2022-10-13T18:46:32.952Z,99914.38
2022-10-13T18:48:59.621Z,99910.69
2022-10-13T18:51:26.610Z,99906.50
2022-10-13T18:53:53.454Z,99907.50
2022-10-13T18:56:23.577Z,99910.16
2022-10-13T18:58:53.510Z,99905.66
2022-10-13T19:01:24.767Z,99909.69
2022-10-13T19:03:52.760Z,99892.09
2022-10-13T19:06:26.932Z,99893.09
2022-10-13T19:08:56.443Z,99885.75
2022-10-13T19:11:24.341Z,99882.75
2022-10-13T19:13:51.682Z,99886.91
2022-10-13T19:16:21.169Z,99887.06
2022-10-13T19:18:48.961Z,99867.81
2022-10-13T19:21:16.353Z,99868.97
2022-10-13T19:23:44.919Z,99883.22
2022-10-13T19:26:28.282Z,99877.00
2022-10-13T19:28:56.758Z,99876.00
2022-10-13T19:31:25.953Z,99882.34
2022-10-13T19:33:53.109Z,99879.38
2022-10-13T19:36:26.049Z,99874.88
2022-10-13T19:38:54.332Z,99871.84
2022-10-13T19:41:21.404Z,99863.34
2022-10-13T19:43:48.780Z,99852.75
2022-10-13T19:46:15.968Z,99849.94
2022-10-13T19:48:44.877Z,99836.53
2022-10-13T19:51:11.836Z,99831.34
2022-10-13T19:53:39.681Z,99829.16
2022-10-13T19:56:07.513Z,99813.09
2022-10-13T19:58:35.165Z,99811.09
2022-10-13T20:01:08.206Z,99804.59
2022-10-13T20:03:35.514Z,99801.75
2022-10-13T20:06:06.536Z,99801.75
2022-10-13T20:08:38.474Z,99797.41
2022-10-13T20:11:07.516Z,99786.03
2022-10-13T20:13:34.853Z,99788.03
2022-10-13T20:16:09.650Z,99786.19
2022-10-13T20:18:37.301Z,99790.72
2022-10-13T20:21:05.627Z,99770.47
2022-10-13T20:23:33.020Z,99779.34
2022-10-13T20:26:08.938Z,99776.34
2022-10-13T20:28:40.492Z,99771.00
2022-10-13T20:31:12.879Z,99763.28
2022-10-13T20:33:41.364Z,99758.97
2022-10-13T20:36:14.106Z,99756.94
2022-10-13T20:38:41.849Z,99755.63
2022-10-13T20:41:14.020Z,99755.44
2022-10-13T20:43:41.120Z,99750.75
2022-10-13T20:46:09.127Z,99756.94
2022-10-13T20:48:58.146Z,99765.63
2022-10-13T20:51:24.574Z,99762.13
2022-10-13T20:53:52.959Z,99775.84
2022-10-13T20:56:22.641Z,99771.00
2022-10-13T20:58:49.853Z,99773.47
2022-10-13T21:01:17.842Z,99771.31
2022-10-13T21:03:44.666Z,99772.34
2022-10-13T21:06:13.134Z,99761.63
2022-10-13T21:08:40.405Z,99754.25
2022-10-13T21:11:10.570Z,99746.56
2022-10-13T21:13:39.474Z,99742.41
2022-10-13T21:16:12.275Z,99734.22
2022-10-13T21:18:39.310Z,99733.03
2022-10-13T21:21:08.833Z,99727.69
2022-10-13T21:23:36.657Z,99718.47
2022-10-13T21:26:05.484Z,99712.50
2022-10-13T21:28:32.543Z,99712.66
2022-10-13T21:31:26.316Z,99703.78
2022-10-13T21:33:53.971Z,99702.44
2022-10-13T21:36:26.052Z,99702.75
2022-10-13T21:38:56.463Z,99708.63
2022-10-13T21:41:23.356Z,99698.59
2022-10-13T21:43:51.576Z,99703.44
2022-10-13T21:46:23.359Z,99697.44
2022-10-13T21:49:00.042Z,99689.09
2022-10-13T21:51:30.320Z,99687.56
2022-10-13T21:54:00.224Z,99682.41
2022-10-13T21:56:30.978Z,99667.34
2022-10-13T21:58:59.176Z,99670.38
2022-10-13T22:01:26.038Z,99662.50
2022-10-13T22:03:56.317Z,99653.50
2022-10-13T22:06:34.888Z,99646.31
2022-10-13T22:09:04.298Z,99644.66
2022-10-13T22:11:33.855Z,99637.31
2022-10-13T22:14:06.902Z,99625.44
2022-10-13T22:16:59.645Z,99636.97
2022-10-13T22:19:28.647Z,99643.13
2022-10-13T22:22:00.367Z,99639.13
2022-10-13T22:24:32.073Z,99639.63
2022-10-13T22:26:59.124Z,99641.44
2022-10-13T22:29:27.116Z,99633.94
2022-10-13T22:31:58.276Z,99637.28
2022-10-13T22:34:25.019Z,99630.28
2022-10-13T22:36:52.140Z,99625.41
2022-10-13T22:39:20.963Z,99621.41
2022-10-13T22:41:53.171Z,99617.22
2022-10-13T22:44:19.915Z,99602.84
2022-10-13T22:46:46.611Z,99599.50
2022-10-13T22:49:16.811Z,99592.13
2022-10-13T22:51:43.576Z,99566.59
2022-10-13T22:54:13.029Z,99563.78
2022-10-13T22:56:40.436Z,99555.44
2022-10-13T22:59:08.942Z,99551.09
2022-10-13T23:01:36.504Z,99542.75
2022-10-13T23:04:04.154Z,99541.28
2022-10-13T23:06:32.853Z,99547.13
2022-10-13T23:09:06.574Z,99540.44
2022-10-13T23:11:34.380Z,99535.25
2022-10-13T23:14:03.302Z,99530.25
2022-10-13T23:16:30.308Z,99522.09
2022-10-13T23:18:56.988Z,99522.25
2022-10-13T23:21:26.593Z,99531.09
2022-10-13T23:24:02.029Z,99522.75
2022-10-13T23:26:29.711Z,99527.25
2022-10-13T23:28:57.585Z,99515.22
2022-10-13T23:31:25.328Z,99513.41
2022-10-13T23:33:52.188Z,99501.72
2022-10-13T23:36:21.836Z,99498.88
2022-10-13T23:38:53.537Z,99504.06
2022-10-13T23:41:20.257Z,99503.19
2022-10-13T23:43:46.949Z,99508.38
2022-10-13T23:46:13.802Z,99503.34
2022-10-13T23:48:40.582Z,99499.34
2022-10-13T23:51:13.061Z,99495.69
2022-10-13T23:53:40.478Z,99487.81
2022-10-13T23:56:08.825Z,99482.66
2022-10-13T23:58:36.719Z,99486.00
